Time;durP1;ratioP1;P1;durP2;ratioP2;P2;SDS_P1;SDS_P2;PMS_P1;PMS_P2;Temp;Humidity;BMP_temperature;BMP_pressure;BME280_temperature;BME280_humidity;BME280_pressure;Samples;Min_cycle;Max_cycle;Signal;HPM_P1;HPM_P2
2022/10/19 00:01:02;;;;;;;;;15.00;12.00;;;;;17.24;79.00;102110.91;5120798;27;45469;-77
2022/10/19 00:03:28;;;;;;;;;12.50;12.00;;;;;17.24;79.32;102109.13;5130875;27;45616;-77
2022/10/19 00:05:53;;;;;;;;;9.00;9.00;;;;;17.25;78.88;102095.03;5110534;27;46275;-77
2022/10/19 00:08:18;;;;;;;;;12.25;9.00;;;;;17.23;79.12;102091.59;5100645;27;65343;-77
2022/10/19 00:10:44;;;;;;;;;12.25;11.50;;;;;17.22;78.96;102080.22;5127348;27;45441;-77
2022/10/19 00:13:09;;;;;;;;;14.00;9.75;;;;;17.21;78.88;102086.38;5119346;27;66705;-76
2022/10/19 00:15:39;;;;;;;;;9.75;9.00;;;;;17.20;78.81;102086.47;5138755;27;48457;-77
2022/10/19 00:18:05;;;;;;;;;11.00;8.25;;;;;17.17;78.96;102084.78;5120592;27;45433;-77
2022/10/19 00:20:31;;;;;;;;;15.25;11.50;;;;;17.15;78.87;102080.50;5120240;27;45390;-77
2022/10/19 00:22:56;;;;;;;;;14.25;10.50;;;;;17.12;79.21;102070.91;5138020;27;70318;-77
2022/10/19 00:25:21;;;;;;;;;12.00;9.25;;;;;17.12;79.16;102077.97;5137908;27;75861;-77
2022/10/19 00:27:47;;;;;;;;;12.00;10.00;;;;;17.10;79.12;102085.91;5137453;27;72972;-77
2022/10/19 00:30:13;;;;;;;;;13.00;10.50;;;;;17.09;79.29;102078.94;5120492;27;45386;-77
2022/10/19 00:32:38;;;;;;;;;12.50;12.50;;;;;17.09;79.36;102075.44;5119957;27;45471;-77
2022/10/19 00:35:04;;;;;;;;;11.00;9.00;;;;;17.07;79.23;102069.34;5121465;27;45347;-77
2022/10/19 00:37:29;;;;;;;;;14.25;11.50;;;;;17.05;79.17;102066.81;5099541;27;45347;-77
2022/10/19 00:39:54;;;;;;;;;11.50;9.00;;;;;17.04;79.18;102057.19;5098652;27;66041;-77
2022/10/19 00:42:20;;;;;;;;;13.25;10.25;;;;;17.03;79.10;102058.97;5117647;27;45202;-77
2022/10/19 00:44:45;;;;;;;;;12.25;12.00;;;;;17.02;78.95;102051.97;5117023;27;67464;-77
2022/10/19 00:47:10;;;;;;;;;12.67;9.33;;;;;17.01;79.17;102052.03;5117912;27;45311;-77
2022/10/19 00:49:39;;;;;;;;;13.00;12.25;;;;;17.01;79.13;102044.13;5098640;27;60447;-77
2022/10/19 00:52:09;;;;;;;;;10.00;8.50;;;;;17.00;79.31;102045.91;5117917;27;45289;-77
2022/10/19 00:54:36;;;;;;;;;9.50;7.00;;;;;16.98;79.38;102042.47;5099415;27;45391;-77
2022/10/19 00:57:03;;;;;;;;;12.75;8.00;;;;;16.97;79.19;102035.47;5098799;27;45995;-77
2022/10/19 00:59:30;;;;;;;;;9.75;8.00;;;;;16.96;79.37;102036.41;5099355;27;45411;-77
2022/10/19 01:01:56;;;;;;;;;8.50;8.00;;;;;16.95;79.42;102037.31;5099624;27;45344;-77
2022/10/19 01:04:24;;;;;;;;;7.00;7.00;;;;;16.94;79.23;102038.25;5099217;27;45392;-77
2022/10/19 01:06:50;;;;;;;;;5.50;5.50;;;;;16.93;79.09;102030.41;5099180;27;45341;-77
2022/10/19 01:09:16;;;;;;;;;6.00;6.00;;;;;16.92;79.30;102026.03;5117593;27;45396;-77
2022/10/19 01:11:50;;;;;;;;;9.50;8.00;;;;;16.88;79.13;102020.03;5116965;27;48512;-77
2022/10/19 01:14:40;;;;;;;;;9.00;7.00;;;;;16.87;79.50;102022.75;5098996;27;45541;-76
2022/10/19 01:17:15;;;;;;;;;7.00;7.00;;;;;16.85;79.32;102028.03;5117444;27;45656;-77
2022/10/19 01:20:05;;;;;;;;;6.00;6.00;;;;;16.82;79.24;102026.34;5099029;27;45422;-76
2022/10/19 01:23:09;;;;;;;;;6.00;6.00;;;;;16.83;79.50;102032.50;5117355;27;45216;-77
2022/10/19 01:25:56;;;;;;;;;6.25;5.00;;;;;16.82;79.18;102025.47;5116907;27;47372;-77
2022/10/19 01:28:30;;;;;;;;;5.00;5.00;;;;;16.81;79.48;102026.41;5117303;27;45433;-76
2022/10/19 01:31:03;;;;;;;;;7.00;6.25;;;;;16.78;79.18;102027.34;5098656;27;45347;-76
2022/10/19 01:33:40;;;;;;;;;6.25;5.00;;;;;16.78;79.44;102029.13;5098727;27;45405;-77
2022/10/19 01:36:30;;;;;;;;;6.25;6.00;;;;;16.78;79.63;102029.13;5098703;27;45339;-76
2022/10/19 01:39:12;;;;;;;;;5.75;4.50;;;;;16.79;79.62;102023.81;5116549;27;45347;-76
2022/10/19 01:41:46;;;;;;;;;6.00;6.00;;;;;16.79;79.51;102022.94;5098757;27;45438;-77
2022/10/19 01:44:21;;;;;;;;;7.00;7.00;;;;;16.76;79.22;102015.19;5097727;27;45422;-77
2022/10/19 01:46:54;;;;;;;;;5.25;4.00;;;;;16.75;79.22;102016.97;5098514;27;45421;-77
2022/10/19 01:49:31;;;;;;;;;8.00;5.25;;;;;16.74;79.27;102011.75;5098526;27;45269;-77
2022/10/19 01:52:01;;;;;;;;;6.00;3.00;;;;;16.74;79.32;102014.38;5098859;27;45384;-77
2022/10/19 01:54:30;;;;;;;;;8.75;6.00;;;;;16.71;79.48;102002.19;5081180;27;45455;-77
2022/10/19 01:56:57;;;;;;;;;5.25;5.25;;;;;16.71;79.56;101998.69;5098333;27;47702;-77
2022/10/19 01:59:24;;;;;;;;;6.25;6.25;;;;;16.69;79.17;102000.53;5098437;27;45269;-77
2022/10/19 02:01:50;;;;;;;;;9.75;5.25;;;;;16.68;79.30;101993.53;5080876;27;59634;-76
2022/10/19 02:04:18;;;;;;;;;8.00;6.00;;;;;16.69;79.32;101990.00;5098538;27;45390;-76
2022/10/19 02:06:43;;;;;;;;;6.25;6.25;;;;;16.65;79.27;101981.38;5098244;27;47259;-77
2022/10/19 02:09:09;;;;;;;;;9.75;6.00;;;;;16.63;79.00;101983.19;5116348;27;45343;-77
2022/10/19 02:11:36;;;;;;;;;6.25;4.50;;;;;16.61;79.35;101972.72;5097522;27;65402;-77
2022/10/19 02:14:09;;;;;;;;;7.25;6.00;;;;;16.61;79.68;101974.50;5097385;27;69077;-77
2022/10/19 02:16:39;;;;;;;;;3.25;3.25;;;;;16.60;79.34;101967.53;5098337;27;45415;-77
2022/10/19 02:19:07;;;;;;;;;6.00;5.00;;;;;16.60;79.21;101970.16;5116429;27;45312;-77
2022/10/19 02:21:33;;;;;;;;;8.25;6.00;;;;;16.60;79.59;101957.00;5098165;27;45329;-76
2022/10/19 02:23:58;;;;;;;;;7.00;6.00;;;;;16.59;79.28;101958.78;5115081;27;45470;-77
2022/10/19 02:26:23;;;;;;;;;5.00;5.00;;;;;16.58;79.66;101958.84;5115448;27;74371;-77
2022/10/19 02:28:49;;;;;;;;;9.50;5.50;;;;;16.57;79.51;101947.47;5113934;27;73191;-77
2022/10/19 02:31:15;;;;;;;;;8.50;6.25;;;;;16.58;79.40;101953.56;5115308;27;45549;-77
2022/10/19 02:33:40;;;;;;;;;7.25;5.75;;;;;16.57;79.47;101954.50;5118227;27;45420;-77
2022/10/19 02:36:06;;;;;;;;;7.50;4.50;;;;;16.57;79.36;101952.72;5135970;27;73564;-76
2022/10/19 02:38:31;;;;;;;;;5.50;5.50;;;;;16.58;79.15;101948.31;5136727;27;45308;-77
2022/10/19 02:41:01;;;;;;;;;6.75;5.50;;;;;16.57;79.48;101942.22;5117638;27;66219;-76
2022/10/19 02:43:27;;;;;;;;;7.25;6.00;;;;;16.55;79.58;101936.16;5137162;27;45409;-77
2022/10/19 02:46:00;;;;;;;;;8.00;5.25;;;;;16.55;79.41;101933.53;5118285;27;45709;-77
2022/10/19 02:48:26;;;;;;;;;5.00;5.00;;;;;16.54;79.28;101923.91;5136838;27;45329;-77
2022/10/19 02:50:52;;;;;;;;;7.00;6.00;;;;;16.53;79.01;101930.09;5118584;27;45394;-77
2022/10/19 02:53:17;;;;;;;;;6.00;5.00;;;;;16.51;79.13;101926.66;5117080;27;70537;-77
2022/10/19 02:55:43;;;;;;;;;10.75;5.00;;;;;16.50;79.03;101924.94;5119585;27;46095;-77
2022/10/19 02:58:08;;;;;;;;;6.50;5.25;;;;;16.49;79.37;101924.97;5139306;27;73407;-77
2022/10/19 03:00:34;;;;;;;;;7.75;5.00;;;;;16.48;79.75;101926.75;5139611;27;60572;-77
2022/10/19 03:02:59;;;;;;;;;5.00;4.75;;;;;16.48;79.07;101924.13;5140341;27;45467;-77
2022/10/19 03:05:24;;;;;;;;;5.50;4.50;;;;;16.47;79.47;101921.56;5139341;27;66051;-76
2022/10/19 03:07:50;;;;;;;;;4.00;4.00;;;;;16.45;79.04;101917.22;5139245;27;72417;-76
2022/10/19 03:10:16;;;;;;;;;6.75;6.00;;;;;16.46;79.24;101912.81;5140199;27;45416;-76
2022/10/19 03:12:41;;;;;;;;;6.25;5.00;;;;;16.45;79.44;101911.09;5121751;27;45437;-77
2022/10/19 03:15:07;;;;;;;;;5.25;4.75;;;;;16.45;79.44;101911.97;5138981;27;73017;-76
2022/10/19 03:17:32;;;;;;;;;6.25;5.00;;;;;16.47;79.27;101913.66;5140136;27;45293;-77
2022/10/19 03:19:58;;;;;;;;;5.25;4.75;;;;;16.46;79.46;101899.69;5118814;27;45403;-77
2022/10/19 03:22:23;;;;;;;;;5.00;4.00;;;;;16.47;79.37;101900.53;5099987;27;67108;-77
2022/10/19 03:24:49;;;;;;;;;5.75;5.75;;;;;16.46;79.20;101899.69;5118041;27;73172;-76
2022/10/19 03:27:14;;;;;;;;;8.50;6.00;;;;;16.44;79.03;101897.09;5119194;27;45887;-77
2022/10/19 03:29:39;;;;;;;;;7.00;6.00;;;;;16.43;79.65;101898.00;5118217;27;69152;-77
2022/10/19 03:32:05;;;;;;;;;5.25;5.25;;;;;16.42;79.19;101891.03;5118468;27;62828;-76
2022/10/19 03:34:30;;;;;;;;;5.25;4.50;;;;;16.42;79.51;101892.81;5105912;27;46135;-76
2022/10/19 03:36:57;;;;;;;;;6.25;4.75;;;;;16.42;79.37;101887.56;5080050;27;45457;-77
2022/10/19 03:39:23;;;;;;;;;5.00;4.00;;;;;16.40;79.27;101887.63;5098376;27;45472;-77
2022/10/19 03:41:49;;;;;;;;;6.25;6.25;;;;;16.39;79.68;101883.25;5080001;27;45400;-77
2022/10/19 03:44:14;;;;;;;;;5.75;5.75;;;;;16.39;80.06;101880.63;5097589;27;65581;-77
2022/10/19 03:46:40;;;;;;;;;10.00;4.75;;;;;16.36;79.35;101874.63;5079220;27;56780;-77
2022/10/19 03:49:05;;;;;;;;;7.75;5.25;;;;;16.36;79.63;101877.25;5097962;27;45404;-76
2022/10/19 03:51:32;;;;;;;;;8.50;5.75;;;;;16.33;79.37;101872.97;5098284;27;45235;-77
2022/10/19 03:54:00;;;;;;;;;4.00;4.00;;;;;16.32;79.39;101871.25;5097814;27;47120;-77
2022/10/19 03:56:27;;;;;;;;;8.00;4.50;;;;;16.31;79.91;101866.06;5098101;27;45863;-77
2022/10/19 03:58:54;;;;;;;;;6.00;5.50;;;;;16.28;79.69;101860.91;5098021;27;45384;-77
2022/10/19 04:01:23;;;;;;;;;5.00;5.00;;;;;16.26;79.79;101868.84;5098223;27;45425;-77
2022/10/19 04:03:56;;;;;;;;;4.00;4.00;;;;;16.24;80.04;101866.25;5079559;27;45756;-77
2022/10/19 04:06:25;;;;;;;;;6.25;5.75;;;;;16.25;80.31;101872.34;5079411;27;45575;-77
2022/10/19 04:08:50;;;;;;;;;7.50;5.00;;;;;16.24;80.29;101871.50;5097494;27;45497;-77
2022/10/19 04:11:18;;;;;;;;;6.75;5.75;;;;;16.25;80.23;101875.88;5097519;27;54506;-77
2022/10/19 04:13:43;;;;;;;;;6.25;4.00;;;;;16.25;80.26;101867.09;5079449;27;46290;-77
2022/10/19 04:16:12;;;;;;;;;5.00;5.00;;;;;16.26;80.08;101874.94;5097193;27;63016;-76
2022/10/19 04:18:37;;;;;;;;;9.00;4.00;;;;;16.25;79.98;101873.25;5097574;27;45418;-76
2022/10/19 04:21:04;;;;;;;;;5.75;5.00;;;;;16.25;80.23;101877.63;5073390;27;45380;-77
2022/10/19 04:23:32;;;;;;;;;8.50;5.00;;;;;16.26;80.24;101879.34;5118191;27;46380;-77
2022/10/19 04:26:06;;;;;;;;;5.75;5.75;;;;;16.24;80.28;101882.03;5118267;27;45438;-77
2022/10/19 04:28:32;;;;;;;;;5.75;5.00;;;;;16.24;80.34;101875.91;5118197;27;45350;-77
2022/10/19 04:31:02;;;;;;;;;6.00;6.00;;;;;16.24;79.93;101873.28;5118173;27;45378;-77
2022/10/19 04:33:27;;;;;;;;;4.50;4.50;;;;;16.23;80.42;101874.19;5103878;27;47587;-76
2022/10/19 04:36:04;;;;;;;;;7.50;7.00;;;;;16.22;80.17;101880.38;5137681;27;72068;-77
2022/10/19 04:38:29;;;;;;;;;5.50;5.50;;;;;16.21;79.84;101874.25;5138846;27;45329;-77
2022/10/19 04:40:58;;;;;;;;;7.50;6.00;;;;;16.21;80.31;101876.88;5120159;27;45408;-77
2022/10/19 04:43:23;;;;;;;;;9.25;5.50;;;;;16.22;80.39;101877.75;5119977;27;45513;-77
2022/10/19 04:45:48;;;;;;;;;5.75;5.75;;;;;16.22;79.91;101875.13;5138658;27;45381;-77
2022/10/19 04:48:14;;;;;;;;;6.00;6.00;;;;;16.21;80.34;101866.38;5138023;27;48099;-77
2022/10/19 04:50:39;;;;;;;;;7.00;7.00;;;;;16.19;80.32;101857.66;5120204;27;45323;-77
2022/10/19 04:53:04;;;;;;;;;9.00;7.00;;;;;16.20;80.23;101854.16;5118897;27;73754;-77
2022/10/19 04:55:30;;;;;;;;;5.75;5.50;;;;;16.20;80.31;101853.28;5138042;27;54670;-77
2022/10/19 04:57:55;;;;;;;;;9.00;7.50;;;;;16.18;79.98;101839.38;5138568;27;45331;-77
2022/10/19 05:00:20;;;;;;;;;10.50;9.50;;;;;16.16;80.12;101835.94;5138254;27;45281;-77
2022/10/19 05:02:46;;;;;;;;;10.25;7.50;;;;;16.14;80.23;101827.22;5136980;27;70085;-77
2022/10/19 05:05:13;;;;;;;;;11.75;6.00;;;;;16.11;80.33;101822.09;5119902;27;45352;-77
2022/10/19 05:07:39;;;;;;;;;10.25;7.50;;;;;16.10;80.42;101820.38;5137317;27;66298;-77
2022/10/19 05:10:05;;;;;;;;;8.50;8.50;;;;;16.06;80.27;101809.09;5138186;27;45546;-77
2022/10/19 05:12:30;;;;;;;;;12.00;7.00;;;;;16.04;80.75;101814.41;5138098;27;46021;-76
2022/10/19 05:14:56;;;;;;;;;15.25;9.00;;;;;16.04;80.58;101817.03;5137080;27;71127;-77
2022/10/19 05:17:21;;;;;;;;;12.50;8.00;;;;;16.03;80.55;101812.72;5137063;27;63603;-76
2022/10/19 05:19:46;;;;;;;;;11.25;10.00;;;;;16.03;80.54;101811.88;5136204;27;53028;-76
2022/10/19 05:22:12;;;;;;;;;7.75;7.25;;;;;16.03;80.70;101815.34;5118436;27;70452;-77
2022/10/19 05:24:37;;;;;;;;;12.50;9.50;;;;;16.02;80.87;101815.38;5137110;27;67180;-76
2022/10/19 05:27:02;;;;;;;;;13.00;10.00;;;;;16.02;80.84;101818.00;5137223;27;61755;-77
2022/10/19 05:29:29;;;;;;;;;7.75;7.75;;;;;16.02;81.34;101818.00;5102224;27;45365;-77
2022/10/19 05:31:54;;;;;;;;;13.00;10.00;;;;;16.01;80.84;101811.03;5137352;27;47493;-77
2022/10/19 05:34:19;;;;;;;;;8.75;8.75;;;;;16.01;81.06;101805.78;5125543;27;74205;-77
2022/10/19 05:36:44;;;;;;;;;8.75;8.00;;;;;16.01;80.62;101804.03;5117215;27;45356;-77
2022/10/19 05:39:14;;;;;;;;;13.00;11.00;;;;;16.02;80.88;101802.25;5116673;27;53514;-76
2022/10/19 05:41:43;;;;;;;;;8.25;8.25;;;;;16.01;80.59;101798.78;5116925;27;46499;-76
2022/10/19 05:44:13;;;;;;;;;10.50;8.75;;;;;16.02;81.02;101794.38;5098486;27;45847;-76
2022/10/19 05:46:38;;;;;;;;;10.00;9.25;;;;;16.03;80.82;101788.22;5098379;27;45359;-77
2022/10/19 05:49:03;;;;;;;;;7.75;7.25;;;;;16.02;80.59;101786.50;5097725;27;68227;-77
2022/10/19 05:51:29;;;;;;;;;11.00;7.00;;;;;16.00;80.63;101783.06;5116860;27;46125;-77
2022/10/19 05:53:54;;;;;;;;;9.50;7.75;;;;;16.00;80.87;101783.06;5115867;27;71421;-76
2022/10/19 05:56:22;;;;;;;;;10.50;9.50;;;;;15.99;80.70;101781.34;5116980;27;45490;-77
2022/10/19 05:58:48;;;;;;;;;13.00;10.00;;;;;15.99;80.67;101782.22;5116802;27;45314;-77
2022/10/19 06:01:14;;;;;;;;;12.00;8.00;;;;;15.98;80.94;101782.28;5116289;27;45969;-77
2022/10/19 06:03:40;;;;;;;;;10.50;10.25;;;;;15.98;80.86;101774.38;5098334;27;45342;-77
2022/10/19 06:06:07;;;;;;;;;8.50;8.50;;;;;15.99;80.79;101778.72;5098422;27;45413;-77
2022/10/19 06:08:32;;;;;;;;;9.75;9.00;;;;;15.98;80.98;101783.13;5116212;27;45459;-77
2022/10/19 06:11:06;;;;;;;;;11.00;7.00;;;;;15.99;80.60;101789.22;5116409;27;46211;-77
2022/10/19 06:13:31;;;;;;;;;9.50;9.25;;;;;15.99;80.78;101792.72;5116771;27;45445;-76
2022/10/19 06:15:57;;;;;;;;;12.00;9.75;;;;;15.98;80.63;101798.88;5116035;27;50196;-77
2022/10/19 06:18:24;;;;;;;;;10.00;7.25;;;;;15.99;80.65;101800.59;5115486;27;70946;-77
2022/10/19 06:20:51;;;;;;;;;9.25;6.75;;;;;15.99;80.78;101791.84;5097949;27;46059;-76
2022/10/19 06:23:16;;;;;;;;;11.75;8.75;;;;;15.98;80.61;101796.25;5116550;27;45694;-76
2022/10/19 06:25:41;;;;;;;;;6.25;6.25;;;;;15.98;80.76;101791.00;5080352;27;59674;-77
2022/10/19 06:28:07;;;;;;;;;11.50;8.75;;;;;16.00;80.73;101788.31;5116518;27;45403;-77
2022/10/19 06:30:32;;;;;;;;;10.00;9.00;;;;;16.02;80.70;101786.50;5116315;27;74908;-77
2022/10/19 06:32:58;;;;;;;;;9.50;7.50;;;;;16.02;80.38;101791.75;5118833;27;70185;-76
2022/10/19 06:35:23;;;;;;;;;11.00;11.00;;;;;16.01;80.57;101788.28;5119732;27;47720;-77
2022/10/19 06:37:48;;;;;;;;;10.00;7.25;;;;;16.03;80.49;101788.22;5101378;27;49702;-77
2022/10/19 06:40:14;;;;;;;;;8.25;8.25;;;;;16.04;80.33;101789.91;5119817;27;45333;-76
2022/10/19 06:42:39;;;;;;;;;10.00;7.00;;;;;16.03;80.58;101786.44;5083445;27;69996;-76
2022/10/19 06:45:07;;;;;;;;;13.00;8.00;;;;;16.03;80.20;101786.44;5119686;27;45409;-77
2022/10/19 06:47:33;;;;;;;;;12.25;10.00;;;;;16.04;80.62;101782.91;5119729;27;45577;-77
2022/10/19 06:49:58;;;;;;;;;14.50;10.25;;;;;16.06;80.28;101774.97;5130395;27;47205;-77
2022/10/19 06:52:24;;;;;;;;;10.25;10.25;;;;;16.07;80.65;101768.81;5119631;27;65636;-76
2022/10/19 06:54:49;;;;;;;;;14.75;11.50;;;;;16.06;80.47;101770.59;5126464;27;54805;-77
2022/10/19 06:57:14;;;;;;;;;13.50;9.00;;;;;16.10;80.55;101778.34;5133315;27;52349;-76
2022/10/19 06:59:40;;;;;;;;;11.00;11.00;;;;;16.11;80.57;101778.28;5125247;27;46331;-77
2022/10/19 07:02:05;;;;;;;;;14.25;12.00;;;;;16.12;80.42;101774.78;5125084;27;69292;-76
2022/10/19 07:04:30;;;;;;;;;11.50;8.25;;;;;16.14;80.42;101780.81;5118775;27;63814;-76
2022/10/19 07:06:56;;;;;;;;;11.50;10.75;;;;;16.19;80.48;101780.66;5130610;27;70308;-75
2022/10/19 07:09:21;;;;;;;;;12.00;10.00;;;;;16.21;80.18;101771.81;5130802;27;69908;-75
2022/10/19 07:11:47;;;;;;;;;15.00;12.00;;;;;16.27;80.52;101773.38;5119007;27;45417;-76
2022/10/19 07:14:12;;;;;;;;;14.25;11.00;;;;;16.31;80.07;101772.34;5129634;27;45472;-76
2022/10/19 07:16:38;;;;;;;;;19.25;11.25;;;;;16.33;80.06;101770.50;5129007;27;45544;-76
2022/10/19 07:19:03;;;;;;;;;14.00;11.00;;;;;16.38;80.16;101762.44;5130726;27;46862;-76
2022/10/19 07:21:28;;;;;;;;;14.00;13.00;;;;;16.41;79.87;101759.69;5104394;27;59625;-76
2022/10/19 07:23:54;;;;;;;;;13.00;12.50;;;;;16.44;80.02;101751.72;5134537;27;57429;-76
2022/10/19 07:26:25;;;;;;;;;10.25;10.25;;;;;16.48;79.80;101758.56;5123458;27;45467;-76
2022/10/19 07:28:50;;;;;;;;;15.50;13.50;;;;;16.51;79.81;101755.84;5114861;27;46247;-76
2022/10/19 07:31:19;;;;;;;;;11.50;11.00;;;;;16.56;79.82;101758.28;5136767;27;45338;-77
2022/10/19 07:33:44;;;;;;;;;12.00;11.00;;;;;16.58;79.78;101754.66;5116103;27;45269;-77
2022/10/19 07:36:12;;;;;;;;;15.00;10.00;;;;;16.62;79.73;101752.78;5133100;27;45497;-77
2022/10/19 07:38:37;;;;;;;;;15.75;14.00;;;;;16.66;79.53;101764.91;5135398;27;46241;-77
2022/10/19 07:41:05;;;;;;;;;13.00;12.50;;;;;16.71;79.71;101764.72;5126667;27;45477;-77
2022/10/19 07:43:31;;;;;;;;;12.75;10.75;;;;;16.78;79.53;101768.81;5116075;27;45486;-77
2022/10/19 07:46:07;;;;;;;;;16.50;14.00;;;;;16.83;79.17;101766.91;5136602;27;45502;-78
2022/10/19 07:48:33;;;;;;;;;12.00;12.00;;;;;16.88;79.38;101753.56;5100041;27;46495;-78
2022/10/19 07:51:00;;;;;;;;;15.00;11.25;;;;;16.96;79.31;101762.88;5110510;27;45674;-79
2022/10/19 07:53:25;;;;;;;;;13.75;12.25;;;;;17.01;78.86;101760.06;5139631;27;45389;-77
2022/10/19 07:55:51;;;;;;;;;18.25;14.00;;;;;17.08;78.83;101758.06;5129579;27;67991;-78
2022/10/19 07:58:16;;;;;;;;;17.50;15.00;;;;;17.17;78.78;101757.69;5139252;27;47071;-77
2022/10/19 08:00:41;;;;;;;;;16.00;12.75;;;;;17.22;78.36;101759.22;5126991;27;45354;-77
2022/10/19 08:03:07;;;;;;;;;18.00;12.75;;;;;17.27;78.33;101766.91;5124171;27;45190;-78
2022/10/19 08:05:33;;;;;;;;;17.00;13.00;;;;;17.30;78.18;101758.91;5117946;27;54706;-78
2022/10/19 08:07:58;;;;;;;;;16.00;13.00;;;;;17.37;78.26;101751.63;5138076;27;45433;-78
2022/10/19 08:10:23;;;;;;;;;16.75;14.00;;;;;17.43;78.15;101753.97;5137848;27;72082;-81
2022/10/19 08:12:48;;;;;;;;;17.50;16.25;;;;;17.48;77.79;101761.72;5137671;27;59140;-79
2022/10/19 08:15:14;;;;;;;;;14.50;12.50;;;;;17.53;77.88;101760.59;5121424;27;71174;-78
2022/10/19 08:17:39;;;;;;;;;15.75;14.25;;;;;17.63;77.62;101760.22;5138082;27;45233;-78
2022/10/19 08:20:06;;;;;;;;;15.50;11.75;;;;;17.69;77.62;101763.41;5132592;27;45271;-78
2022/10/19 08:22:32;;;;;;;;;21.75;16.00;;;;;17.76;77.36;101753.50;5118275;27;45383;-78
2022/10/19 08:24:57;;;;;;;;;16.50;16.50;;;;;17.86;77.29;101752.19;5116474;27;55096;-78
2022/10/19 08:27:23;;;;;;;;;18.75;12.75;;;;;17.98;76.99;101748.19;5117865;27;45343;-77
2022/10/19 08:29:48;;;;;;;;;16.50;14.00;;;;;18.08;76.85;101748.63;5124060;27;67060;-78
2022/10/19 08:32:13;;;;;;;;;16.75;13.00;;;;;18.18;76.67;101749.91;5119251;27;45380;-78
2022/10/19 08:34:39;;;;;;;;;18.00;15.00;;;;;18.27;76.11;101743.38;5124731;27;66041;-78
2022/10/19 08:37:04;;;;;;;;;20.00;15.00;;;;;18.33;76.21;101737.81;5138049;27;46137;-78
2022/10/19 08:39:30;;;;;;;;;17.75;15.25;;;;;18.39;75.87;101734.91;5136335;27;45444;-79
2022/10/19 08:42:00;;;;;;;;;18.25;14.50;;;;;18.39;75.50;101737.56;5124877;27;45564;-78
2022/10/19 08:44:44;;;;;;;;;18.00;15.75;;;;;18.39;75.35;101737.56;5114085;27;45375;-79
2022/10/19 08:47:34;;;;;;;;;17.00;14.00;;;;;18.41;75.40;101724.31;5118102;27;47252;-78
2022/10/19 08:50:00;;;;;;;;;23.00;18.00;;;;;18.44;75.78;101726.78;5108434;27;45387;-78
2022/10/19 08:52:29;;;;;;;;;18.50;14.75;;;;;18.48;75.31;101720.44;5118975;27;69294;-77
2022/10/19 08:55:07;;;;;;;;;19.50;15.75;;;;;18.48;75.18;101728.34;5130082;27;45243;-76
2022/10/19 08:57:48;;;;;;;;;20.75;14.25;;;;;18.47;75.07;101721.38;5099294;27;46106;-76
2022/10/19 09:00:32;;;;;;;;;15.50;14.50;;;;;18.47;75.18;101727.50;5117403;27;45641;-75
2022/10/19 09:03:00;;;;;;;;;17.75;12.75;;;;;18.45;74.95;101736.41;5117501;27;45391;-76
2022/10/19 09:06:02;;;;;;;;;16.00;13.00;;;;;18.43;75.10;101735.63;5117650;27;45386;-76
2022/10/19 09:08:27;;;;;;;;;18.75;14.50;;;;;18.42;75.12;101729.50;5102465;27;47214;-76
2022/10/19 09:10:53;;;;;;;;;17.25;11.50;;;;;18.43;75.47;101733.84;5098111;27;72871;-77
2022/10/19 09:13:33;;;;;;;;;18.75;15.25;;;;;18.44;74.81;101724.16;5117659;27;45331;-77
2022/10/19 09:15:59;;;;;;;;;16.50;13.75;;;;;18.45;75.27;101721.44;5099132;27;45450;-77
2022/10/19 09:18:31;;;;;;;;;17.75;11.75;;;;;18.45;75.17;101716.19;5098044;27;69331;-77
2022/10/19 09:21:08;;;;;;;;;15.00;11.00;;;;;18.48;75.13;101705.50;5098589;27;45744;-77
2022/10/19 09:23:38;;;;;;;;;21.50;15.00;;;;;18.49;75.09;101708.97;5117000;27;45402;-77
2022/10/19 09:26:11;;;;;;;;;17.25;11.75;;;;;18.46;75.27;101712.63;5099175;27;45347;-77
2022/10/19 09:28:57;;;;;;;;;13.00;12.25;;;;;18.49;75.31;101706.34;5117154;27;46017;-77
2022/10/19 09:31:25;;;;;;;;;12.75;12.00;;;;;18.50;75.40;101700.16;5117377;27;45433;-77
2022/10/19 09:34:26;;;;;;;;;14.25;14.25;;;;;18.53;75.02;101698.22;5117145;27;45504;-77
2022/10/19 09:36:56;;;;;;;;;15.25;13.50;;;;;18.58;75.31;101690.94;5103064;27;45330;-78
2022/10/19 09:39:22;;;;;;;;;16.00;13.00;;;;;18.66;75.10;101698.47;5098737;27;46479;-77
2022/10/19 09:41:54;;;;;;;;;11.75;11.00;;;;;18.74;74.76;101695.50;5116796;27;45884;-77
2022/10/19 09:44:20;;;;;;;;;12.25;12.00;;;;;18.78;74.94;101699.69;5117242;27;45502;-78
2022/10/19 09:47:32;;;;;;;;;10.75;10.00;;;;;18.88;74.83;101694.84;5098536;27;45220;-78
2022/10/19 09:50:17;;;;;;;;;12.50;10.00;;;;;19.01;74.49;101703.88;5073528;28;46398;-78
2022/10/19 09:52:45;;;;;;;;;17.00;14.25;;;;;19.08;74.41;101688.59;5073229;28;45421;-78
2022/10/19 09:55:13;;;;;;;;;13.75;11.00;;;;;19.13;74.40;101694.53;5056851;28;45457;-78
2022/10/19 09:57:42;;;;;;;;;17.00;11.50;;;;;19.18;74.23;101689.84;5073766;28;45402;-78
2022/10/19 10:00:32;;;;;;;;;13.25;10.75;;;;;19.21;73.82;101689.69;5073376;28;45472;-76
2022/10/19 10:02:57;;;;;;;;;10.75;9.75;;;;;19.24;73.43;101684.28;5073328;28;45485;-75
2022/10/19 10:05:48;;;;;;;;;13.50;10.50;;;;;19.30;73.67;101686.59;5074565;28;45437;-78
2022/10/19 10:08:25;;;;;;;;;9.75;8.00;;;;;19.35;73.32;101675.78;5073033;28;60852;-75
2022/10/19 10:11:12;;;;;;;;;12.25;11.00;;;;;19.43;73.10;101665.72;5077060;28;45474;-75
2022/10/19 10:13:43;;;;;;;;;11.00;11.00;;;;;19.47;73.24;101667.25;5060063;28;45831;-76
2022/10/19 10:16:14;;;;;;;;;13.75;12.25;;;;;19.53;73.24;101668.72;5077233;28;45339;-75
2022/10/19 10:18:54;;;;;;;;;9.75;9.75;;;;;19.63;72.79;101671.72;5076785;28;45495;-76
2022/10/19 10:21:25;;;;;;;;;11.00;11.00;;;;;19.71;72.74;101669.56;5046004;28;46147;-76
2022/10/19 10:23:58;;;;;;;;;10.25;9.75;;;;;19.80;72.39;101671.75;5039584;28;45370;-75
2022/10/19 10:26:24;;;;;;;;;11.75;9.25;;;;;19.87;71.81;101665.22;5093022;27;45364;-78
2022/10/19 10:28:50;;;;;;;;;10.00;9.50;;;;;19.96;71.76;101655.06;5081509;27;45428;-78
2022/10/19 10:31:28;;;;;;;;;11.00;10.50;;;;;20.05;72.14;101651.94;5099448;27;46057;-78
2022/10/19 10:34:00;;;;;;;;;12.25;11.50;;;;;20.17;71.69;101653.91;5089976;27;45382;-76
2022/10/19 10:36:28;;;;;;;;;11.75;10.00;;;;;20.29;71.15;101642.63;5100440;27;66293;-76
2022/10/19 10:39:07;;;;;;;;;13.75;10.00;;;;;20.41;70.83;101635.84;5101502;27;45331;-76
2022/10/19 10:41:38;;;;;;;;;13.75;10.75;;;;;20.52;70.55;101637.84;5101443;27;47155;-76
2022/10/19 10:44:22;;;;;;;;;11.75;9.50;;;;;20.60;69.83;101627.75;5101388;27;45310;-76
2022/10/19 10:46:57;;;;;;;;;11.25;10.00;;;;;20.65;69.32;101630.97;5119854;27;45295;-76
2022/10/19 10:49:34;;;;;;;;;15.00;12.75;;;;;20.79;69.23;101621.38;5101102;27;45286;-76
2022/10/19 10:52:04;;;;;;;;;13.25;10.00;;;;;20.96;68.92;101623.03;5088450;27;47256;-76
2022/10/19 10:54:31;;;;;;;;;10.50;9.75;;;;;21.14;68.18;101610.53;5086983;27;45369;-76
2022/10/19 10:57:03;;;;;;;;;11.25;9.75;;;;;21.25;68.22;101608.94;5088055;27;45553;-75
2022/10/19 10:59:45;;;;;;;;;10.25;10.25;;;;;21.37;67.28;101619.72;5099401;27;45408;-76
2022/10/19 11:02:13;;;;;;;;;10.75;10.00;;;;;21.58;67.54;101604.34;5105944;27;45500;-76
2022/10/19 11:04:42;;;;;;;;;11.50;9.25;;;;;21.97;67.12;101608.97;5117415;27;45368;-76
2022/10/19 11:07:16;;;;;;;;;11.25;10.00;;;;;23.05;66.52;101604.66;5090414;27;45496;-75
2022/10/19 11:09:43;;;;;;;;;13.50;12.75;;;;;24.32;64.38;101599.28;5088377;27;45495;-74
2022/10/19 11:12:12;;;;;;;;;12.25;10.00;;;;;25.11;60.70;101588.91;5082753;27;47399;-76
2022/10/19 11:14:45;;;;;;;;;10.00;10.00;;;;;25.87;59.71;101583.88;5100888;27;45354;-76
2022/10/19 11:17:16;;;;;;;;;13.00;9.50;;;;;26.33;57.31;101582.00;5116447;27;45422;-76
2022/10/19 11:19:43;;;;;;;;;10.75;10.00;;;;;26.83;55.19;101582.28;5099690;27;45444;-77
2022/10/19 11:22:49;;;;;;;;;12.00;9.25;;;;;27.55;54.55;101569.91;5127266;27;46461;-76
2022/10/19 11:25:35;;;;;;;;;10.00;9.75;;;;;29.11;53.81;101567.31;5121572;27;45433;-76